Flight Track Log - Related Links

Times and Time Zones

All times are in EDT time to prevent confusion due to time zone crossing. See the EGF4247 flight status page for this flight to view local times or setup timezone preferences in your user account.

Time Position Orientation Groundspeed Altitude Reporting Facility
EDT Latitude Longitude Course Direction KTS MPH feet Rate Location/Type
Tue 04:21:08 PM 42.9167 -78.7500 270° West 150 173 2,100  Level Toronto Center
Tue 04:21:35 PM 42.9000 -78.7833 236° Southwest 184 212 3,400 2,444 Climbing Buffalo TRACON
Tue 04:22:29 PM 42.8500 -78.8333 216° Southwest 211 243 5,400 2,300 Climbing Buffalo TRACON
Tue 04:23:00 PM 42.9500 -79.0444 270° West  Level FlightAware Approximate
Tue 04:23:35 PM 42.8167 -78.9000 236° Southwest 225 259 8,000  Level Buffalo TRACON
Tue 04:24:00 PM 42.9573 -79.1540 277° West  Level FlightAware Approximate
Tue 04:24:29 PM 42.8167 -78.9833 270° West 244 281 9,700  Level Buffalo TRACON
Tue 04:25:00 PM 42.9664 -79.2634 277° West  Level FlightAware Approximate
Tue 04:26:00 PM 42.9667 -79.3735 270° West  Level FlightAware Approximate
Tue 04:26:41 PM 42.8333 -79.2000 276° West 290 334 13,200  Level Buffalo TRACON
Tue 04:27:08 PM 42.8333 -79.2167 270° West 290 334 13,800 1,448 Climbing Toronto Center
Tue 04:28:08 PM 42.8500 -79.3333 281° West 300 345 15,300 1,500 Climbing Toronto Center
Tue 04:29:08 PM 42.8667 -79.4667 280° West 310 357 16,800 1,350 Climbing Toronto Center
Tue 04:30:08 PM 42.8833 -79.5833 281° West 320 368 18,000 800 Climbing Toronto Center
Tue 04:31:08 PM 42.9167 -79.7000 291° West 340 391 18,400 600 Climbing Toronto Center
Tue 04:32:08 PM 42.9500 -79.8333 289° West 360 414 19,200 800 Climbing Toronto Center
Tue 04:33:08 PM 42.9667 -79.9667 280° West 370 426 20,000 400 Climbing Toronto Center
Tue 04:34:08 PM 42.9833 -80.1333 278° West 390 449 20,000  Level Toronto Center
Tue 04:35:08 PM 42.9833 -80.2667 270° West 400 460 20,000  Level Toronto Center
Tue 04:36:08 PM 43.0000 -80.4333 278° West 400 460 20,000  Level Toronto Center
Tue 04:37:08 PM 43.0000 -80.5833 270° West 400 460 20,000  Level Toronto Center
Tue 04:38:08 PM 43.0167 -80.7333 279° West 390 449 20,000  Level Toronto Center
Tue 04:39:08 PM 43.0000 -80.8833 261° West 390 449 20,000  Level Toronto Center
Tue 04:40:08 PM 43.0167 -81.0167 280° West 390 449 20,000  Level Toronto Center
Tue 04:41:08 PM 43.0167 -81.1833 270° West 400 460 20,000  Level Toronto Center
Tue 04:42:08 PM 43.0167 -81.3500 270° West 400 460 20,000  Level Toronto Center
Tue 04:43:08 PM 43.0167 -81.4833 270° West 400 460 20,000  Level Toronto Center
Tue 04:44:08 PM 43.0167 -81.6333 270° West 400 460 20,000  Level Toronto Center
Tue 04:45:08 PM 43.0167 -81.7833 270° West 400 460 20,000  Level Toronto Center
Tue 04:46:08 PM 43.0000 -81.9333 261° West 390 449 20,000  Level Toronto Center
Tue 04:47:08 PM 43.0000 -82.1000 270° West 390 449 20,000  Level Toronto Center
Tue 04:48:08 PM 43.0000 -82.2333 270° West 380 437 20,000  Level Toronto Center
Tue 04:49:08 PM 43.0000 -82.3667 270° West 360 414 20,000  Level Toronto Center
Tue 04:50:08 PM 43.0000 -82.5000 270° West 360 414 20,000  Level Toronto Center
Tue 04:51:08 PM 42.9833 -82.6500 261° West 360 414 20,000  Level Toronto Center
Tue 04:52:08 PM 42.9833 -82.7833 270° West 360 414 20,000  Level Toronto Center
Tue 04:53:08 PM 42.9833 -82.9167 270° West 360 414 20,000  Level Toronto Center
Tue 04:54:08 PM 42.9833 -83.0500 270° West 360 414 20,000  Level Toronto Center
Tue 04:55:08 PM 42.9833 -83.1833 270° West 360 414 20,000  Level Toronto Center
Tue 04:56:08 PM 42.9667 -83.3167 260° West 350 403 20,000  Level Toronto Center
Tue 04:57:08 PM 42.9667 -83.4333 270° West 350 403 20,000  Level Toronto Center
Tue 04:58:08 PM 42.9667 -83.5667 270° West 340 391 20,000  Level Toronto Center
Tue 04:59:08 PM 42.9500 -83.7167 261° West 340 391 20,000  Level Toronto Center
Tue 05:00:08 PM 43.0000 -83.8333 300° West 360 414 20,000  Level Toronto Center
Tue 05:01:08 PM 43.1000 -83.8833 340° North 390 449 20,000  Level Toronto Center
Tue 05:02:08 PM 43.1167 -84.0000 281° West 350 403 20,000  Level Toronto Center
Tue 05:03:08 PM 43.0667 -84.1000 236° Southwest 330 380 20,000  Level Toronto Center
Tue 05:03:42 PM 43.0542 -84.1489 251° West 335 386 20,000  Level Chicago Center
Tue 05:04:44 PM 43.0278 -84.2975 256° West 337 388 20,000  Level Chicago Center
Tue 05:05:47 PM 43.0033 -84.4225 255° West 336 387 20,000  Level Chicago Center
Tue 05:06:49 PM 42.9794 -84.5450 255° West 340 391 20,000  Level Chicago Center
Tue 05:07:51 PM 42.9544 -84.6703 255° West 338 389 20,000  Level Chicago Center
Tue 05:08:53 PM 42.9292 -84.7969 255° West 343 395 20,000  Level Chicago Center
Tue 05:09:55 PM 42.9044 -84.9189 255° West 343 395 20,000  Level Chicago Center
Tue 05:10:57 PM 42.8739 -85.0686 254° West 344 396 20,000  Level Chicago Center
Tue 05:11:59 PM 42.8489 -85.1961 255° West 342 394 20,000  Level Chicago Center
Tue 05:13:01 PM 42.8233 -85.3200 254° West 345 397 20,000  Level Chicago Center
Tue 05:14:03 PM 42.7967 -85.4458 254° West 345 397 20,000  Level Chicago Center
Tue 05:15:05 PM 42.7722 -85.5733 255° West 347 399 20,000  Level Chicago Center
Tue 05:16:08 PM 42.7497 -85.7019 257° West 348 400 20,000  Level Chicago Center
Tue 05:17:10 PM 42.7267 -85.8311 256° West 349 402 20,000  Level Chicago Center
Tue 05:18:12 PM 42.6983 -85.9858 256° West 349 402 20,000  Level Chicago Center
Tue 05:19:14 PM 42.6744 -86.1178 256° West 355 409 20,000  Level Chicago Center
Tue 05:20:16 PM 42.6492 -86.2539 256° West 367 422 20,000 -192 Level Chicago Center
Tue 05:21:19 PM 42.6236 -86.3889 256° West 368 423 19,600 -1,152 Descending Chicago Center
Tue 05:22:21 PM 42.5983 -86.5225 256° West 367 422 17,600 -1,984 Descending Chicago Center
Tue 05:23:23 PM 42.5744 -86.6500 256° West 354 407 15,500 -2,081 Descending Chicago Center
Tue 05:24:25 PM 42.5447 -86.7953 255° West 339 390 13,300 -2,032 Descending Chicago Center
Tue 05:25:27 PM 42.5125 -86.9069 249° West 326 375 11,300 -1,548 Descending Chicago Center
Tue 05:26:29 PM 42.4819 -87.0181 250° West 318 366 10,100 -677 Descending Chicago Center
Tue 05:27:31 PM 42.4550 -87.1142 249° West 282 325 9,900 -532 Descending Chicago Center
Tue 05:28:33 PM 42.4317 -87.1950 249° West 237 273 9,000 -435 Descending Chicago Center
Tue 05:29:35 PM 42.3964 -87.2617 234° Southwest 240 276 9,000  Level Chicago Center
Tue 05:30:37 PM 42.3194 -87.2422 169° South 237 273 9,000  Level Chicago Center
Tue 05:31:40 PM 42.2497 -87.2250 170° South 246 283 9,000  Level Chicago Center
Tue 05:32:42 PM 42.1797 -87.2078 170° South 254 292 9,000 -145 Level Chicago Center
Tue 05:33:44 PM 42.1106 -87.1911 170° South 254 292 8,700 -629 Descending Chicago Center
Tue 05:34:46 PM 42.0458 -87.1792 172° South 238 274 7,700 -823 Descending Chicago Center
Tue 05:35:48 PM 42.0008 -87.2286 219° Southwest 212 244 7,000 -339 Descending Chicago Center
Tue 05:36:50 PM 41.9844 -87.3072 254° West 199 229 7,000  Level Chicago Center
Tue 05:37:52 PM 41.9825 -87.3639 267° West 160 184 7,000 57 Level Chicago Center
Tue 05:38:35 PM 41.9833 -87.4167 271° West 157 181 7,100  Climbing Chicago TRACON
Tue 05:39:41 PM 41.9833 -87.4667 270° West 163 188 7,000 -476 Descending Chicago TRACON
Tue 05:40:41 PM 41.9833 -87.5333 270° West 162 186 6,100 -900 Descending Chicago TRACON
Tue 05:41:41 PM 41.9833 -87.6000 270° West 160 184 5,200 -1,000 Descending Chicago TRACON
Tue 05:42:35 PM 41.9833 -87.6500 270° West 176 203 4,200 -1,000 Descending Chicago TRACON
Tue 05:43:35 PM 41.9833 -87.7167 270° West 172 198 3,300 -900 Descending Chicago TRACON

Login

Don't have an account? Register now (free) for customized features, flight alerts, and more!